Time;durP1;ratioP1;P1;durP2;ratioP2;P2;SDS_P1;SDS_P2;PMS_P1;PMS_P2;Temp;Humidity;BMP_temperature;BMP_pressure;BME280_temperature;BME280_humidity;BME280_pressure;Samples;Min_cycle;Max_cycle;Signal;HPM_P1;HPM_P2
2022/08/20 00:03:49;;;;;;;2.25;0.57;;;27.90;59.50;;;;;;10408516;28;20157;-34
2022/08/20 00:08:51;;;;;;;1.95;0.65;;;27.80;59.50;;;;;;10383872;28;20693;-33
2022/08/20 00:13:57;;;;;;;2.05;0.77;;;27.80;59.50;;;;;;10393744;28;20049;-33
2022/08/20 00:19:00;;;;;;;2.00;1.38;;;27.80;59.60;;;;;;10410172;28;20048;-33
2022/08/20 00:24:02;;;;;;;2.22;0.60;;;27.80;59.50;;;;;;10405120;28;20191;-34
2022/08/20 00:29:06;;;;;;;2.33;0.82;;;27.80;59.50;;;;;;10402127;28;20042;-34
2022/08/20 00:34:08;;;;;;;1.55;0.80;;;27.70;59.40;;;;;;10406668;28;20555;-34
2022/08/20 00:39:10;;;;;;;4.22;0.93;;;27.70;59.60;;;;;;10403634;28;20049;-35
2022/08/20 00:44:17;;;;;;;2.35;0.80;;;27.70;59.40;;;;;;10411947;28;20054;-34
2022/08/20 00:49:24;;;;;;;3.35;1.08;;;27.70;59.40;;;;;;10405502;28;20045;-34
2022/08/20 00:54:30;;;;;;;2.00;0.75;;;27.70;60.00;;;;;;10405107;28;20070;-33
2022/08/20 00:59:36;;;;;;;1.60;0.70;;;27.70;59.40;;;;;;10402066;28;20081;-34
2022/08/20 01:04:37;;;;;;;2.03;1.23;;;27.60;59.20;;;;;;10394904;28;20042;-33
2022/08/20 01:09:39;;;;;;;1.65;0.90;;;27.60;59.30;;;;;;10422629;28;20409;-33
2022/08/20 01:14:45;;;;;;;2.08;0.90;;;27.60;59.40;;;;;;10431659;28;20076;-33
2022/08/20 01:19:51;;;;;;;1.23;0.77;;;27.50;59.30;;;;;;10431151;28;20056;-34
2022/08/20 01:25:03;;;;;;;3.53;0.90;;;27.50;59.30;;;;;;10427843;28;20052;-33
2022/08/20 01:30:08;;;;;;;2.42;0.93;;;27.50;59.40;;;;;;10435036;28;20075;-32
2022/08/20 01:35:10;;;;;;;2.67;0.70;;;27.50;59.40;;;;;;10485313;28;20071;-34
2022/08/20 01:40:17;;;;;;;4.22;0.77;;;27.40;59.30;;;;;;10479924;28;20040;-32
2022/08/20 01:45:20;;;;;;;3.33;0.70;;;27.40;59.20;;;;;;10478522;28;20132;-33
2022/08/20 01:50:27;;;;;;;2.08;0.85;;;27.40;59.30;;;;;;10484345;28;20113;-33
2022/08/20 01:55:29;;;;;;;2.75;1.02;;;27.40;59.30;;;;;;10488078;28;20094;-33
2022/08/20 02:00:34;;;;;;;4.28;0.95;;;27.40;59.40;;;;;;10486861;28;20052;-32
2022/08/20 02:05:36;;;;;;;5.32;0.80;;;27.40;59.30;;;;;;10474789;28;20381;-33
2022/08/20 02:10:38;;;;;;;1.40;0.65;;;27.30;59.80;;;;;;10484951;28;20113;-33
2022/08/20 02:15:41;;;;;;;2.70;1.00;;;27.30;59.30;;;;;;10480640;28;20102;-34
2022/08/20 02:20:44;;;;;;;2.30;1.02;;;27.20;59.30;;;;;;10474149;28;20103;-33
2022/08/20 02:25:47;;;;;;;1.75;0.80;;;27.20;59.20;;;;;;10468459;28;20477;-34
2022/08/20 02:30:54;;;;;;;3.92;0.90;;;27.20;59.20;;;;;;10478058;28;20072;-32
2022/08/20 02:35:56;;;;;;;1.40;0.75;;;27.20;59.30;;;;;;10480778;28;20072;-32
2022/08/20 02:40:58;;;;;;;1.63;0.77;;;27.20;59.20;;;;;;10477462;28;20056;-33
2022/08/20 02:46:02;;;;;;;2.28;0.80;;;27.10;59.20;;;;;;10480267;28;20071;-33
2022/08/20 02:51:06;;;;;;;1.63;0.73;;;27.10;59.20;;;;;;10477382;28;20068;-32
2022/08/20 02:56:09;;;;;;;3.20;0.90;;;27.10;59.30;;;;;;10488959;28;20538;-33
2022/08/20 03:01:16;;;;;;;1.00;0.73;;;27.10;59.20;;;;;;10458945;28;20103;-33
2022/08/20 03:06:18;;;;;;;2.50;0.75;;;27.10;59.10;;;;;;10462676;28;21929;-31
2022/08/20 03:11:20;;;;;;;2.45;1.05;;;27.10;59.10;;;;;;10474927;28;20083;-33
2022/08/20 03:16:23;;;;;;;2.38;0.80;;;27.10;59.10;;;;;;10469555;28;20063;-34
2022/08/20 03:21:25;;;;;;;0.93;0.68;;;27.00;59.00;;;;;;10474587;28;20084;-32
2022/08/20 03:26:27;;;;;;;2.42;0.75;;;26.90;58.90;;;;;;10466406;28;20056;-34
2022/08/20 03:31:30;;;;;;;2.60;0.75;;;27.00;59.00;;;;;;10475847;28;20465;-33
2022/08/20 03:36:32;;;;;;;2.50;0.90;;;26.90;59.00;;;;;;10469645;28;20132;-34
2022/08/20 03:41:34;;;;;;;3.65;1.17;;;26.90;58.90;;;;;;10462629;28;20391;-34
2022/08/20 03:46:38;;;;;;;2.50;0.63;;;26.90;58.80;;;;;;10471256;28;20113;-32
2022/08/20 03:51:40;;;;;;;1.70;0.90;;;26.90;58.80;;;;;;10464589;28;20041;-35
2022/08/20 03:56:42;;;;;;;3.05;1.02;;;26.90;58.90;;;;;;10463907;28;20041;-32
2022/08/20 04:01:45;;;;;;;2.60;1.00;;;26.80;58.80;;;;;;10460229;28;20149;-33
2022/08/20 04:06:47;;;;;;;3.42;1.02;;;26.80;58.70;;;;;;10461841;28;20369;-33
2022/08/20 04:11:49;;;;;;;1.77;1.00;;;26.80;58.70;;;;;;10459200;28;20057;-34
2022/08/20 04:16:52;;;;;;;2.70;1.08;;;26.80;58.70;;;;;;10470258;28;20086;-34
2022/08/20 04:21:54;;;;;;;1.15;0.55;;;26.70;58.70;;;;;;10459258;28;20554;-40
2022/08/20 04:26:56;;;;;;;2.63;0.80;;;26.80;58.70;;;;;;10478711;28;20083;-33
2022/08/20 04:32:00;;;;;;;2.25;1.00;;;26.70;58.70;;;;;;10485369;28;20059;-33
2022/08/20 04:37:02;;;;;;;1.33;0.80;;;26.70;58.60;;;;;;10482360;28;20048;-33
2022/08/20 04:42:04;;;;;;;2.75;0.88;;;26.70;58.70;;;;;;10483892;28;20473;-33
2022/08/20 04:47:08;;;;;;;2.95;1.10;;;26.70;58.60;;;;;;10486075;28;20068;-32
2022/08/20 04:52:10;;;;;;;3.22;1.02;;;26.60;58.50;;;;;;10492292;28;20075;-32
2022/08/20 04:57:12;;;;;;;1.23;0.93;;;26.60;58.50;;;;;;10492283;28;20045;-33
2022/08/20 05:02:17;;;;;;;2.67;0.88;;;26.60;58.50;;;;;;10498052;28;20097;-33
2022/08/20 05:07:19;;;;;;;1.50;0.77;;;26.60;58.50;;;;;;10491934;28;20064;-31
2022/08/20 05:12:20;;;;;;;1.77;1.00;;;26.60;58.40;;;;;;10487332;28;20079;-34
2022/08/20 05:17:24;;;;;;;1.23;0.75;;;26.60;59.00;;;;;;10476469;28;20048;-35
2022/08/20 05:22:27;;;;;;;2.25;1.00;;;26.60;58.40;;;;;;10484955;28;20140;-34
2022/08/20 05:27:29;;;;;;;2.03;1.00;;;26.60;58.30;;;;;;10486596;28;20048;-34
2022/08/20 05:32:34;;;;;;;3.67;1.10;;;26.60;58.20;;;;;;10487949;28;20759;-35
2022/08/20 05:37:36;;;;;;;2.28;0.85;;;26.50;58.20;;;;;;10501557;28;20453;-34
2022/08/20 05:42:38;;;;;;;2.15;1.20;;;26.60;58.10;;;;;;10488698;28;20617;-34
2022/08/20 05:47:41;;;;;;;3.33;1.02;;;26.80;58.00;;;;;;10488079;28;20093;-34
2022/08/20 05:52:44;;;;;;;2.25;0.80;;;26.70;57.80;;;;;;10501849;28;20500;-33
2022/08/20 05:57:46;;;;;;;1.50;0.73;;;26.70;57.70;;;;;;10480936;28;20044;-34
2022/08/20 06:08:10;;;;;;;1.90;1.10;;;26.80;57.70;;;;;;10485876;28;20417;-33
2022/08/20 06:13:12;;;;;;;2.00;1.10;;;26.80;57.70;;;;;;10486370;28;20406;-34
2022/08/20 06:18:16;;;;;;;2.03;0.90;;;26.80;57.60;;;;;;10481200;28;20503;-34
2022/08/20 06:23:18;;;;;;;5.55;1.27;;;26.80;57.30;;;;;;10487243;28;20064;-33
2022/08/20 06:28:20;;;;;;;3.38;1.15;;;26.80;57.10;;;;;;10478837;28;20079;-33
2022/08/20 06:33:23;;;;;;;3.20;1.42;;;26.80;57.00;;;;;;10479048;28;20032;-33
2022/08/20 06:38:25;;;;;;;5.40;1.75;;;26.80;56.70;;;;;;10480451;28;20118;-34
2022/08/20 06:43:27;;;;;;;3.22;1.15;;;26.50;57.00;;;;;;10480302;28;20049;-34
2022/08/20 06:48:30;;;;;;;7.22;1.73;;;26.80;56.60;;;;;;10494268;28;20106;-35
2022/08/20 06:53:32;;;;;;;2.38;1.20;;;26.80;56.70;;;;;;10490444;28;20055;-33
2022/08/20 06:58:35;;;;;;;3.35;1.30;;;26.80;56.60;;;;;;10484916;28;20541;-34
2022/08/20 07:03:49;;;;;;;5.03;1.60;;;26.90;56.40;;;;;;10486053;28;20052;-34
2022/08/20 07:08:50;;;;;;;4.38;1.50;;;26.80;56.20;;;;;;10477559;28;20048;-34
2022/08/20 07:13:52;;;;;;;7.38;1.67;;;26.90;56.00;;;;;;10488449;28;20048;-32
2022/08/20 07:18:57;;;;;;;6.47;1.48;;;26.80;55.70;;;;;;10487699;28;20094;-33
2022/08/20 07:23:58;;;;;;;3.90;1.42;;;26.80;55.60;;;;;;10489559;28;20155;-33
2022/08/20 07:29:00;;;;;;;5.57;2.00;;;26.80;55.50;;;;;;10495218;28;20475;-34
2022/08/20 07:34:05;;;;;;;4.00;1.27;;;26.90;55.40;;;;;;10498566;28;20087;-35
2022/08/20 07:39:07;;;;;;;6.03;1.60;;;26.80;55.40;;;;;;10497531;28;20044;-34
2022/08/20 07:44:10;;;;;;;5.53;1.40;;;26.70;55.50;;;;;;10483020;28;20501;-35
2022/08/20 07:49:16;;;;;;;7.72;1.98;;;26.60;55.40;;;;;;10498489;28;20076;-34
2022/08/20 07:54:18;;;;;;;4.88;1.85;;;26.70;55.00;;;;;;10494024;28;20049;-34
2022/08/20 07:59:20;;;;;;;5.28;1.55;;;26.80;54.80;;;;;;10502974;28;20517;-34
2022/08/20 08:04:24;;;;;;;9.20;2.45;;;26.90;54.60;;;;;;10498711;28;20056;-32
2022/08/20 08:09:27;;;;;;;10.35;1.50;;;26.30;56.20;;;;;;10490245;28;20044;-34
2022/08/20 08:14:33;;;;;;;4.90;1.40;;;26.80;54.50;;;;;;10484198;28;20084;-34
2022/08/20 08:19:41;;;;;;;4.68;1.17;;;25.90;50.80;;;;;;10477391;28;20056;-34
2022/08/20 08:24:46;;;;;;;5.65;1.08;;;26.50;54.70;;;;;;10490485;28;20147;-34
2022/08/20 08:29:48;;;;;;;4.50;1.15;;;26.70;54.20;;;;;;10490693;28;20041;-33
2022/08/20 08:34:51;;;;;;;3.65;1.20;;;26.90;53.80;;;;;;10489357;28;20048;-34
2022/08/20 08:39:53;;;;;;;2.28;0.68;;;26.40;54.70;;;;;;10481042;28;20070;-32
2022/08/20 08:44:58;;;;;;;5.07;1.15;;;25.70;56.10;;;;;;10496030;28;20040;-34
2022/08/20 08:50:02;;;;;;;7.28;1.40;;;26.70;51.90;;;;;;10485483;28;20057;-34
2022/08/20 08:55:10;;;;;;;5.05;1.40;;;26.30;53.70;;;;;;10482325;28;20532;-33
2022/08/20 09:00:16;;;;;;;4.68;1.70;;;25.80;56.20;;;;;;10490286;28;20136;-42
2022/08/20 09:05:22;;;;;;;3.42;0.90;;;26.50;54.40;;;;;;10488299;28;20048;-41
2022/08/20 09:10:24;;;;;;;10.32;1.70;;;26.60;54.30;;;;;;10488499;28;20818;-37
2022/08/20 09:15:26;;;;;;;5.18;1.10;;;25.90;49.60;;;;;;10485273;28;20049;-34
2022/08/20 09:20:29;;;;;;;6.78;1.48;;;26.60;53.90;;;;;;10486706;28;20049;-41
2022/08/20 09:25:31;;;;;;;1.77;1.00;;;25.70;52.40;;;;;;10471278;28;20182;-38
2022/08/20 09:30:33;;;;;;;4.63;1.40;;;26.40;54.00;;;;;;10467869;28;20068;-42
2022/08/20 09:35:36;;;;;;;9.75;1.80;;;26.80;51.40;;;;;;10472809;28;20511;-39
2022/08/20 09:40:39;;;;;;;5.30;1.10;;;24.90;53.20;;;;;;10478725;28;20063;-36
2022/08/20 09:45:41;;;;;;;6.80;1.92;;;26.40;53.60;;;;;;10481291;28;20052;-38
2022/08/20 09:50:48;;;;;;;2.95;1.13;;;26.20;52.00;;;;;;10488177;28;20493;-40
2022/08/20 09:55:53;;;;;;;5.50;1.30;;;26.30;53.50;;;;;;10475169;28;20404;-41
2022/08/20 10:00:55;;;;;;;3.70;1.05;;;26.40;51.00;;;;;;10473204;28;20076;-42
2022/08/20 10:05:58;;;;;;;6.88;1.50;;;26.70;52.30;;;;;;10478140;28;20052;-39
2022/08/20 10:11:00;;;;;;;11.30;1.80;;;25.90;52.30;;;;;;10487289;28;20055;-39
2022/08/20 10:16:03;;;;;;;4.28;1.00;;;25.90;51.80;;;;;;10482407;28;20101;-42
2022/08/20 10:21:10;;;;;;;4.25;1.10;;;26.50;52.80;;;;;;10480441;28;20558;-42
2022/08/20 10:26:13;;;;;;;5.60;1.73;;;26.10;52.90;;;;;;10481548;28;20450;-38
2022/08/20 10:31:15;;;;;;;2.97;0.88;;;24.90;54.80;;;;;;10480062;28;20062;-35
2022/08/20 10:36:19;;;;;;;6.25;1.13;;;26.60;52.40;;;;;;10479427;28;20076;-41
2022/08/20 10:41:21;;;;;;;4.60;1.00;;;25.20;51.00;;;;;;10488889;28;20063;-40
2022/08/20 10:46:22;;;;;;;5.93;1.20;;;26.50;52.60;;;;;;10485322;28;20040;-40
2022/08/20 10:51:26;;;;;;;7.65;1.20;;;26.60;52.00;;;;;;10490650;28;20052;-36
2022/08/20 10:56:28;;;;;;;9.25;2.28;;;26.20;48.90;;;;;;10487862;28;20481;-42
2022/08/20 11:01:30;;;;;;;7.90;1.52;;;25.50;52.90;;;;;;10477684;28;20060;-41
2022/08/20 11:06:33;;;;;;;4.40;1.02;;;26.50;50.60;;;;;;10485160;28;20048;-39
2022/08/20 11:11:35;;;;;;;5.10;1.00;;;26.50;51.90;;;;;;10475069;28;20122;-41
2022/08/20 11:16:37;;;;;;;3.70;1.25;;;26.50;51.90;;;;;;10472346;28;20114;-35
2022/08/20 11:21:40;;;;;;;8.85;1.20;;;26.00;51.60;;;;;;10477575;28;20094;-41
2022/08/20 11:26:42;;;;;;;8.57;1.58;;;25.40;54.20;;;;;;10474873;28;20079;-41
2022/08/20 11:31:44;;;;;;;4.70;1.23;;;24.70;53.90;;;;;;10483466;28;20095;-43
2022/08/20 11:36:48;;;;;;;7.03;1.30;;;24.60;54.00;;;;;;10478059;28;20044;-42
2022/08/20 11:41:50;;;;;;;4.80;1.25;;;25.20;55.40;;;;;;10487501;28;20334;-40
2022/08/20 11:46:52;;;;;;;5.97;1.30;;;25.50;55.00;;;;;;10487819;28;20044;-40
2022/08/20 11:51:55;;;;;;;;;;;25.30;53.90;;;;;;10489174;28;20140;-40
2022/08/20 11:56:57;;;;;;;9.40;1.48;;;24.30;54.70;;;;;;10491261;28;19963;-41
2022/08/20 12:01:59;;;;;;;4.25;1.20;;;24.50;55.90;;;;;;10489502;28;20056;-39
2022/08/20 12:07:09;;;;;;;3.58;1.35;;;25.60;55.80;;;;;;10500571;28;20121;-39
2022/08/20 12:12:12;;;;;;;8.10;1.40;;;24.80;57.70;;;;;;10486768;28;20503;-39
2022/08/20 12:17:18;;;;;;;6.97;1.00;;;24.40;55.20;;;;;;10486742;28;20105;-41
2022/08/20 12:22:22;;;;;;;2.92;1.00;;;25.30;56.80;;;;;;10489383;28;20093;-41
2022/08/20 12:27:26;;;;;;;3.58;1.05;;;25.00;56.90;;;;;;10486799;28;20044;-42
2022/08/20 12:32:30;;;;;;;5.90;1.20;;;24.70;58.10;;;;;;10489408;28;20068;-39
2022/08/20 12:37:33;;;;;;;2.75;1.10;;;24.50;58.60;;;;;;10490488;28;20087;-40
2022/08/20 12:42:35;;;;;;;6.60;1.17;;;25.50;55.70;;;;;;10489104;28;20064;-40
2022/08/20 12:47:39;;;;;;;8.80;1.90;;;25.60;55.80;;;;;;10488418;28;20080;-42
2022/08/20 12:52:42;;;;;;;2.72;1.08;;;25.40;53.80;;;;;;10488396;28;20055;-36
2022/08/20 12:57:46;;;;;;;6.03;1.33;;;25.50;56.90;;;;;;10485275;28;20129;-38
2022/08/20 13:02:48;;;;;;;20.88;1.40;;;25.30;57.00;;;;;;10484770;28;20133;-41
2022/08/20 13:07:52;;;;;;;4.43;1.67;;;25.30;58.10;;;;;;10484914;28;20087;-36
2022/08/20 13:12:54;;;;;;;4.80;1.30;;;24.60;59.10;;;;;;10482116;28;20567;-41
2022/08/20 13:17:59;;;;;;;6.00;1.00;;;25.60;55.50;;;;;;10489006;28;20059;-42
2022/08/20 13:23:03;;;;;;;4.78;1.20;;;26.10;56.00;;;;;;10487261;28;20079;-33
2022/08/20 13:28:06;;;;;;;13.30;3.10;;;25.40;57.00;;;;;;10489346;28;20064;-34
2022/08/20 13:33:08;;;;;;;3.40;1.10;;;25.20;54.60;;;;;;10473682;28;20130;-33
2022/08/20 13:38:12;;;;;;;6.45;1.50;;;25.20;56.20;;;;;;10488962;28;20143;-33
2022/08/20 13:43:14;;;;;;;7.75;2.95;;;25.70;54.30;;;;;;10476573;28;20072;-34
2022/08/20 13:48:16;;;;;;;7.10;1.45;;;26.40;51.70;;;;;;10460429;28;20564;-33
2022/08/20 13:53:19;;;;;;;9.45;3.50;;;26.20;49.60;;;;;;10479919;28;20080;-40
2022/08/20 13:58:21;;;;;;;7.97;3.97;;;25.70;56.20;;;;;;10483786;28;20135;-44
2022/08/20 14:03:23;;;;;;;6.30;2.22;;;26.70;52.40;;;;;;10490372;28;20048;-43
2022/08/20 14:08:26;;;;;;;4.40;1.83;;;27.40;53.80;;;;;;10471164;28;20055;-36
2022/08/20 14:13:29;;;;;;;4.32;1.67;;;27.30;51.80;;;;;;10482366;28;20036;-40
2022/08/20 14:18:30;;;;;;;7.45;1.50;;;27.30;52.40;;;;;;10486796;28;20100;-40
2022/08/20 14:23:33;;;;;;;5.38;1.42;;;27.10;52.30;;;;;;10486975;28;20048;-40
2022/08/20 14:28:35;;;;;;;5.20;1.50;;;27.40;52.70;;;;;;10473879;28;20580;-35
2022/08/20 14:33:37;;;;;;;9.52;2.72;;;27.00;54.30;;;;;;10489387;28;20094;-40
2022/08/20 14:38:43;;;;;;;7.03;1.58;;;28.00;49.00;;;;;;10469475;28;20114;-40
2022/08/20 14:43:45;;;;;;;5.45;1.58;;;28.00;49.30;;;;;;10480658;28;20060;-40
2022/08/20 14:48:47;;;;;;;4.07;1.23;;;28.00;49.00;;;;;;10482018;28;20383;-38
2022/08/20 14:53:50;;;;;;;5.13;1.15;;;28.10;52.50;;;;;;10482332;28;20047;-39
2022/08/20 14:58:52;;;;;;;7.95;1.30;;;27.60;49.60;;;;;;10481337;28;20068;-34
2022/08/20 15:03:54;;;;;;;3.72;1.00;;;27.70;52.70;;;;;;10484998;28;20094;-35
2022/08/20 15:08:57;;;;;;;1.77;1.00;;;28.40;51.40;;;;;;10488948;28;20603;-39
2022/08/20 15:13:59;;;;;;;2.60;1.00;;;28.90;51.80;;;;;;10486682;28;20076;-36
2022/08/20 15:19:01;;;;;;;5.35;1.10;;;29.10;51.30;;;;;;10486737;28;20044;-38
2022/08/20 15:24:05;;;;;;;2.67;0.70;;;29.50;47.20;;;;;;10490272;28;20096;-40
2022/08/20 15:29:07;;;;;;;2.30;1.00;;;28.60;47.60;;;;;;10486793;28;20127;-35
2022/08/20 15:34:09;;;;;;;4.18;1.10;;;28.30;48.70;;;;;;10488011;28;20453;-36
2022/08/20 15:39:12;;;;;;;1.73;0.80;;;28.50;44.50;;;;;;10487323;28;20103;-28
2022/08/20 15:44:14;;;;;;;4.20;1.23;;;29.40;50.00;;;;;;10487102;28;20053;-39
2022/08/20 15:49:16;;;;;;;1.38;0.75;;;29.00;48.40;;;;;;10483344;28;20048;-39
2022/08/20 15:54:25;;;;;;;4.50;1.15;;;29.60;48.20;;;;;;10497319;28;20052;-40
2022/08/20 15:59:45;;;;;;;3.45;1.10;;;29.30;45.40;;;;;;10488368;28;20693;-40
2022/08/20 16:05:08;;;;;;;2.38;1.00;;;28.90;49.80;;;;;;10505764;28;20639;-37
2022/08/20 16:10:16;;;;;;;6.38;1.23;;;29.30;48.60;;;;;;10488636;28;20191;-36
2022/08/20 16:15:24;;;;;;;4.53;1.30;;;29.50;48.80;;;;;;10487729;28;20064;-37
2022/08/20 16:20:30;;;;;;;2.90;0.88;;;29.70;48.70;;;;;;10481582;28;20121;-37
2022/08/20 16:25:54;;;;;;;2.47;1.23;;;29.70;48.80;;;;;;10485419;28;20067;-34
2022/08/20 16:31:02;;;;;;;2.92;0.98;;;29.90;48.30;;;;;;10481077;28;20068;-38
2022/08/20 16:36:12;;;;;;;3.97;1.20;;;29.90;48.30;;;;;;10479617;28;20401;-38
2022/08/20 16:41:24;;;;;;;3.70;1.20;;;30.10;48.10;;;;;;10482155;28;20056;-36
2022/08/20 16:46:30;;;;;;;9.43;2.60;;;30.00;48.50;;;;;;10494764;28;20630;-35
2022/08/20 16:51:37;;;;;;;3.08;1.08;;;29.90;47.20;;;;;;10490720;28;20131;-38
2022/08/20 16:56:43;;;;;;;2.78;1.17;;;30.20;48.20;;;;;;10498385;28;20436;-36
2022/08/20 17:01:47;;;;;;;5.40;1.13;;;30.10;48.20;;;;;;10489816;28;20045;-38
2022/08/20 17:06:50;;;;;;;1.92;1.00;;;29.60;47.00;;;;;;10485223;28;20048;-37
2022/08/20 17:12:16;;;;;;;1.88;1.17;;;30.20;48.10;;;;;;10478621;28;20082;-33
2022/08/20 17:17:21;;;;;;;4.50;1.33;;;30.30;48.20;;;;;;10480970;28;20054;-34
2022/08/20 17:22:24;;;;;;;3.55;1.00;;;30.20;48.20;;;;;;10485065;28;20542;-34
2022/08/20 17:27:37;;;;;;;4.88;1.25;;;30.10;48.40;;;;;;10478475;28;20793;-37
2022/08/20 17:32:50;;;;;;;2.55;0.95;;;30.40;47.80;;;;;;10476341;28;20131;-37
2022/08/20 17:37:53;;;;;;;3.85;0.98;;;30.50;48.00;;;;;;10489604;28;20464;-36
2022/08/20 17:43:00;;;;;;;2.42;0.75;;;30.50;47.90;;;;;;10485184;28;20136;-40
2022/08/20 17:48:05;;;;;;;2.30;0.82;;;30.70;47.90;;;;;;10484491;28;20485;-35
2022/08/20 17:53:16;;;;;;;2.53;0.70;;;30.50;47.00;;;;;;10483620;28;20048;-35
2022/08/20 17:58:20;;;;;;;;;;;30.60;47.50;;;;;;10479202;28;20131;-40
2022/08/20 18:03:24;;;;;;;2.67;0.73;;;30.50;47.60;;;;;;10485635;28;19960;-41
2022/08/20 18:08:35;;;;;;;2.67;0.60;;;30.60;47.70;;;;;;10485063;28;20418;-40
2022/08/20 18:14:06;;;;;;;3.20;0.82;;;30.50;47.70;;;;;;10480803;28;20102;-38
2022/08/20 18:19:14;;;;;;;4.65;0.77;;;30.40;47.80;;;;;;10488309;28;20140;-41
2022/08/20 18:24:21;;;;;;;7.05;0.90;;;30.50;47.30;;;;;;10481392;28;20055;-39
2022/08/20 18:29:27;;;;;;;3.38;0.70;;;30.50;47.80;;;;;;10476822;28;20048;-38
2022/08/20 18:34:38;;;;;;;5.50;1.77;;;30.40;47.90;;;;;;10477834;28;20423;-38
2022/08/20 18:39:44;;;;;;;11.10;2.80;;;30.40;47.90;;;;;;10483441;28;20055;-38
2022/08/20 18:44:49;;;;;;;7.35;2.22;;;30.40;47.90;;;;;;10492788;28;20062;-38
2022/08/20 18:50:13;;;;;;;6.03;2.13;;;30.30;48.10;;;;;;10484843;28;20568;-38
2022/08/20 18:55:29;;;;;;;4.57;1.67;;;30.30;48.20;;;;;;10489393;28;20071;-34
2022/08/20 19:00:38;;;;;;;6.18;1.40;;;30.20;48.10;;;;;;10483145;28;20495;-40
2022/08/20 19:05:50;;;;;;;6.38;1.30;;;30.00;48.60;;;;;;10498851;28;20045;-40
2022/08/20 19:11:02;;;;;;;6.63;1.70;;;30.10;48.40;;;;;;10488849;28;20052;-37
2022/08/20 19:16:09;;;;;;;6.95;1.48;;;30.00;48.50;;;;;;10485458;28;20152;-39
2022/08/20 19:21:14;;;;;;;6.85;1.50;;;30.00;48.70;;;;;;10489972;28;20080;-43
2022/08/20 19:26:18;;;;;;;7.25;2.25;;;29.90;48.70;;;;;;10488976;28;20102;-41
2022/08/20 19:31:25;;;;;;;14.05;1.95;;;29.80;48.80;;;;;;10488525;28;20075;-33
2022/08/20 19:36:27;;;;;;;11.52;1.42;;;29.80;48.80;;;;;;10485798;28;20047;-40
2022/08/20 19:41:31;;;;;;;7.85;1.83;;;29.80;48.90;;;;;;10486792;28;20060;-35
2022/08/20 19:46:38;;;;;;;7.80;1.45;;;29.70;48.90;;;;;;10489069;28;20083;-42
2022/08/20 19:51:53;;;;;;;9.85;1.52;;;29.70;49.00;;;;;;10491710;28;20119;-41
2022/08/20 19:56:56;;;;;;;4.95;1.30;;;29.60;49.00;;;;;;10484661;28;20469;-40
2022/08/20 20:02:01;;;;;;;7.07;1.52;;;29.50;49.00;;;;;;10487758;28;20076;-37
2022/08/20 20:07:07;;;;;;;8.80;1.90;;;29.50;49.10;;;;;;10489847;28;20052;-39
2022/08/20 20:12:14;;;;;;;7.30;1.98;;;29.50;49.20;;;;;;10484067;28;20131;-39
2022/08/20 20:17:22;;;;;;;9.18;2.17;;;29.40;49.20;;;;;;10486136;28;20130;-36
2022/08/20 20:22:26;;;;;;;13.23;1.98;;;29.30;49.30;;;;;;10487104;28;20051;-38
2022/08/20 20:27:28;;;;;;;8.60;1.75;;;29.20;49.20;;;;;;10488770;28;20045;-40
2022/08/20 20:32:33;;;;;;;12.23;2.00;;;29.20;49.30;;;;;;10488180;28;20054;-42
2022/08/20 20:37:38;;;;;;;5.72;1.45;;;29.20;49.50;;;;;;10487718;28;20045;-40
2022/08/20 20:42:41;;;;;;;4.65;1.40;;;29.20;49.50;;;;;;10478030;28;20155;-39
2022/08/20 20:47:49;;;;;;;6.35;1.42;;;29.10;49.40;;;;;;10488827;28;20087;-38
2022/08/20 20:52:54;;;;;;;4.03;1.65;;;29.10;49.60;;;;;;10487771;28;20102;-37
2022/08/20 20:57:56;;;;;;;3.58;1.35;;;29.00;49.70;;;;;;10490491;28;21084;-37
2022/08/20 21:03:00;;;;;;;5.57;1.35;;;29.00;49.80;;;;;;10490422;28;20143;-39
2022/08/20 21:08:05;;;;;;;3.20;0.90;;;28.90;49.70;;;;;;10487163;28;20178;-41
2022/08/20 21:13:09;;;;;;;3.20;0.90;;;28.90;49.80;;;;;;10489297;28;20155;-39
2022/08/20 21:18:12;;;;;;;2.05;0.73;;;28.90;49.80;;;;;;10478928;28;20497;-37
2022/08/20 21:23:14;;;;;;;3.83;1.10;;;28.80;49.80;;;;;;10481113;28;20555;-39
2022/08/20 21:28:17;;;;;;;2.03;1.13;;;28.80;49.80;;;;;;10488519;28;20055;-39
2022/08/20 21:33:20;;;;;;;5.90;1.42;;;28.70;49.90;;;;;;10486952;28;20502;-42
2022/08/20 21:38:22;;;;;;;2.70;1.10;;;28.70;49.90;;;;;;10476655;28;20048;-37
2022/08/20 21:43:24;;;;;;;3.92;1.30;;;28.60;50.00;;;;;;10492583;28;20473;-38
2022/08/20 21:48:27;;;;;;;4.20;1.20;;;28.60;50.00;;;;;;10464249;28;20446;-39
2022/08/20 21:53:29;;;;;;;3.35;1.00;;;28.60;50.10;;;;;;10484005;28;20064;-39
2022/08/20 21:58:31;;;;;;;2.25;0.93;;;28.50;50.10;;;;;;10480874;28;20446;-34
2022/08/20 22:03:36;;;;;;;4.05;1.25;;;28.50;50.20;;;;;;10481235;28;20517;-37
2022/08/20 22:08:38;;;;;;;4.43;1.20;;;28.50;50.30;;;;;;10489552;28;20102;-36
2022/08/20 22:13:41;;;;;;;3.60;1.10;;;28.40;50.30;;;;;;10485011;28;20045;-41
2022/08/20 22:18:45;;;;;;;3.88;1.40;;;28.30;50.40;;;;;;10488286;28;20520;-34
2022/08/20 22:23:48;;;;;;;4.20;1.10;;;28.30;50.50;;;;;;10481581;28;20145;-36
2022/08/20 22:28:50;;;;;;;4.35;1.02;;;28.30;50.60;;;;;;10492938;28;20481;-41
2022/08/20 22:33:53;;;;;;;3.53;0.90;;;28.30;50.70;;;;;;10487161;28;20060;-40
2022/08/20 22:38:55;;;;;;;3.30;1.20;;;28.20;50.70;;;;;;10494050;28;20041;-37
2022/08/20 22:43:57;;;;;;;1.48;0.65;;;28.20;50.80;;;;;;10493257;28;20465;-36
2022/08/20 22:49:00;;;;;;;3.53;0.85;;;28.20;50.90;;;;;;10483629;28;20437;-38
2022/08/20 22:54:04;;;;;;;3.70;0.75;;;28.10;50.90;;;;;;10486644;28;20059;-42
2022/08/20 22:59:06;;;;;;;3.40;1.30;;;28.10;51.00;;;;;;10484493;28;20072;-39
2022/08/20 23:04:14;;;;;;;4.15;1.20;;;28.00;51.00;;;;;;10497192;28;20059;-30
2022/08/20 23:09:15;;;;;;;3.22;1.15;;;28.00;51.10;;;;;;10494598;28;20817;-38
2022/08/20 23:14:18;;;;;;;3.17;0.90;;;28.00;51.10;;;;;;10480840;28;20110;-35
2022/08/20 23:19:22;;;;;;;2.30;0.82;;;28.00;51.20;;;;;;10477761;28;20127;-37
2022/08/20 23:24:25;;;;;;;4.65;1.05;;;27.90;51.20;;;;;;10492606;28;20057;-35
2022/08/20 23:29:27;;;;;;;1.55;0.93;;;27.90;51.20;;;;;;10493259;28;20051;-36
2022/08/20 23:34:31;;;;;;;1.30;0.80;;;27.80;51.30;;;;;;10494006;28;20040;-40
2022/08/20 23:39:33;;;;;;;3.35;1.02;;;27.80;51.40;;;;;;10495522;28;20147;-39
2022/08/20 23:44:35;;;;;;;1.88;0.80;;;27.70;51.40;;;;;;10478446;28;20079;-41
2022/08/20 23:49:38;;;;;;;3.80;1.20;;;27.70;51.40;;;;;;10482324;28;20055;-36
2022/08/20 23:54:40;;;;;;;3.30;1.08;;;27.70;51.50;;;;;;10487847;28;20048;-39
2022/08/20 23:59:42;;;;;;;4.45;0.90;;;27.70;51.60;;;;;;10477434;28;20440;-40
